createdAt,value
2023-05-08T00:05:28.574Z,99018.22
2023-05-08T00:10:54.063Z,99017.84
2023-05-08T00:16:19.572Z,99025.13
2023-05-08T00:21:50.543Z,99020.88
2023-05-08T00:27:14.563Z,99033.53
2023-05-08T00:32:39.577Z,99031.59
2023-05-08T00:38:06.550Z,99029.88
2023-05-08T00:43:34.678Z,99034.13
2023-05-08T00:49:00.666Z,99047.38
2023-05-08T00:54:30.583Z,99040.09
2023-05-08T00:59:56.541Z,99045.56
2023-05-08T01:05:27.556Z,99035.00
2023-05-08T01:11:04.591Z,99041.41
2023-05-08T01:16:32.613Z,99024.25
2023-05-08T01:22:03.564Z,99038.94
2023-05-08T01:28:05.579Z,99036.63
2023-05-08T01:33:36.667Z,99034.44
2023-05-08T01:39:09.572Z,99042.03
2023-05-08T01:44:41.579Z,99045.06
2023-05-08T01:50:19.588Z,99031.44
2023-05-08T01:55:47.607Z,99047.69
2023-05-08T02:01:13.618Z,99040.25
2023-05-08T02:06:48.569Z,99048.22
2023-05-08T02:12:17.724Z,99043.97
2023-05-08T02:17:43.711Z,99046.22
2023-05-08T02:23:12.585Z,99049.47
2023-05-08T02:28:39.614Z,99044.56
2023-05-08T02:34:06.612Z,99054.88
2023-05-08T02:39:34.608Z,99051.66
2023-05-08T02:44:59.653Z,99048.59
2023-05-08T02:50:32.616Z,99047.34
2023-05-08T02:56:06.599Z,99063.56
2023-05-08T03:01:39.706Z,99063.16
2023-05-08T03:07:13.597Z,99065.63
2023-05-08T03:12:44.676Z,99058.28
2023-05-08T03:18:17.628Z,99060.63
2023-05-08T03:23:45.643Z,99066.19
2023-05-08T03:29:15.042Z,99060.31
2023-05-08T03:34:40.626Z,99066.84
2023-05-08T03:40:06.652Z,99067.25
2023-05-08T03:45:36.629Z,99061.91
2023-05-08T03:51:01.761Z,99057.78
2023-05-08T03:56:28.696Z,99073.22
2023-05-08T04:02:04.651Z,99073.44
2023-05-08T04:07:43.620Z,99069.50
2023-05-08T04:13:14.687Z,99067.38
2023-05-08T04:18:45.696Z,99086.56
2023-05-08T04:24:12.644Z,99096.84
2023-05-08T04:29:38.937Z,99108.03
2023-05-08T04:35:06.668Z,99116.16
2023-05-08T04:40:30.689Z,99123.50
2023-05-08T04:45:56.656Z,99126.06
2023-05-08T04:51:25.653Z,99150.13
2023-05-08T04:56:51.682Z,99157.97
2023-05-08T05:02:16.661Z,99166.75
2023-05-08T05:07:45.742Z,99162.97
2023-05-08T05:13:11.722Z,99180.44
2023-05-08T05:18:36.720Z,99196.97
2023-05-08T05:24:03.650Z,99192.03
2023-05-08T05:29:28.692Z,99196.97
2023-05-08T05:34:52.669Z,99190.13
2023-05-08T05:40:21.677Z,99179.72
2023-05-08T05:45:46.678Z,99177.59
2023-05-08T05:51:12.718Z,99174.34
2023-05-08T05:56:39.695Z,99178.47
2023-05-08T06:02:04.745Z,99161.91
2023-05-08T06:07:35.681Z,99150.81
2023-05-08T06:13:03.776Z,99143.72
2023-05-08T06:18:28.924Z,99135.88
2023-05-08T06:23:53.695Z,99125.91
2023-05-08T06:29:20.719Z,99113.59
2023-05-08T06:34:45.707Z,99116.34
2023-05-08T06:40:12.608Z,99111.69
2023-05-08T06:45:40.710Z,99103.34
2023-05-08T06:51:07.930Z,99099.47
2023-05-08T06:56:33.710Z,99090.63
2023-05-08T07:02:01.837Z,99082.88
2023-05-08T07:07:32.725Z,99084.31
2023-05-08T07:12:57.754Z,99073.69
2023-05-08T07:18:25.718Z,99076.28
2023-05-08T07:23:51.844Z,99071.41
2023-05-08T07:29:15.760Z,99064.50
2023-05-08T07:34:43.775Z,99066.28
2023-05-08T07:40:07.725Z,99061.63
2023-05-08T07:45:32.769Z,99059.94
2023-05-08T07:50:59.750Z,99065.88
2023-05-08T07:56:24.744Z,99063.28
2023-05-08T08:01:53.837Z,99064.16
2023-05-08T08:07:27.781Z,99066.97
2023-05-08T08:12:52.819Z,99067.13
2023-05-08T08:18:16.816Z,99069.69
2023-05-08T08:23:44.740Z,99067.22
2023-05-08T08:29:09.750Z,99062.22
2023-05-08T08:34:34.785Z,99052.63
2023-05-08T08:40:01.767Z,99054.91
2023-05-08T08:45:26.742Z,99055.16
2023-05-08T08:50:57.787Z,99054.56
2023-05-08T08:56:25.784Z,99058.81
2023-05-08T09:01:54.015Z,99051.22
2023-05-08T09:07:25.773Z,99057.84
2023-05-08T09:12:53.894Z,99065.31
2023-05-08T09:18:18.817Z,99069.75
2023-05-08T09:23:45.803Z,99066.22
2023-05-08T09:29:24.786Z,99065.34
2023-05-08T09:34:49.847Z,99059.91
2023-05-08T09:40:29.842Z,99059.25
2023-05-08T09:45:58.048Z,99051.59
2023-05-08T09:51:22.833Z,99056.13
2023-05-08T09:56:48.834Z,99049.13
2023-05-08T10:02:27.874Z,99047.03
2023-05-08T10:07:58.836Z,99061.50
2023-05-08T10:13:29.858Z,99058.50
2023-05-08T10:18:59.852Z,99065.19
2023-05-08T10:24:29.831Z,99056.44
2023-05-08T10:30:01.837Z,99048.81
2023-05-08T10:35:29.013Z,99048.00
2023-05-08T10:40:54.837Z,99049.78
2023-05-08T10:46:26.885Z,99050.88
2023-05-08T10:52:04.848Z,99050.09
2023-05-08T10:57:28.900Z,99047.38
2023-05-08T11:02:59.130Z,99045.63
2023-05-08T11:08:34.857Z,99039.09
2023-05-08T11:14:03.840Z,99042.56
2023-05-08T11:19:34.883Z,99043.16
2023-05-08T11:25:18.869Z,99051.28
2023-05-08T11:30:52.094Z,99043.66
2023-05-08T11:36:23.870Z,99036.09
2023-05-08T11:41:50.970Z,99035.38
2023-05-08T11:47:18.973Z,99033.59
2023-05-08T11:52:44.922Z,99035.94
2023-05-08T11:58:22.893Z,99025.28
2023-05-08T12:03:47.465Z,99028.03
2023-05-08T12:09:20.973Z,99026.75
2023-05-08T12:14:49.911Z,99021.63
2023-05-08T12:20:22.999Z,99008.84
2023-05-08T12:25:49.295Z,99015.78
2023-05-08T12:31:17.981Z,99015.94
2023-05-08T12:36:44.925Z,99006.94
2023-05-08T12:42:09.911Z,98998.84
2023-05-08T12:47:36.962Z,99003.63
2023-05-08T12:53:01.940Z,99001.84
2023-05-08T12:58:28.977Z,99001.22
2023-05-08T13:04:09.188Z,98985.69
2023-05-08T13:09:33.942Z,98982.13
2023-05-08T13:14:57.940Z,98977.78
2023-05-08T13:20:25.968Z,98972.13
2023-05-08T13:25:51.969Z,98959.47
2023-05-08T13:31:17.042Z,98951.44
2023-05-08T13:36:43.989Z,98952.00
2023-05-08T13:42:08.956Z,98936.81
2023-05-08T13:47:32.995Z,98932.50
2023-05-08T13:53:01.041Z,98928.00
2023-05-08T13:58:24.961Z,98917.00
2023-05-08T14:03:50.049Z,98914.91
2023-05-08T14:09:17.033Z,98906.56
2023-05-08T14:14:41.985Z,98904.84
2023-05-08T14:20:06.162Z,98899.63
2023-05-08T14:25:34.005Z,98916.25
2023-05-08T14:30:57.993Z,98906.63
2023-05-08T14:36:22.975Z,98915.56
2023-05-08T14:42:05.745Z,98909.75
2023-05-08T14:47:35.028Z,98909.13
2023-05-08T14:52:59.207Z,98903.28
2023-05-08T14:58:27.011Z,98905.00
2023-05-08T15:03:54.159Z,98911.97
2023-05-08T15:09:19.189Z,98910.06
2023-05-08T15:14:46.013Z,98914.69
2023-05-08T15:20:11.079Z,98921.22
2023-05-08T15:25:37.051Z,98907.13
2023-05-08T15:31:05.044Z,98907.50
2023-05-08T15:36:30.559Z,98922.81
2023-05-08T15:41:56.053Z,98915.47
2023-05-08T15:47:26.381Z,98908.72
2023-05-08T15:52:51.617Z,98900.25
2023-05-08T15:58:16.079Z,98909.56
2023-05-08T16:03:44.304Z,98915.78
2023-05-08T16:09:11.195Z,98909.31
2023-05-08T16:14:36.052Z,98904.22
2023-05-08T16:20:03.158Z,98900.06
2023-05-08T16:25:28.068Z,98899.03
2023-05-08T16:30:52.131Z,98893.38
2023-05-08T16:36:20.093Z,98887.72
2023-05-08T16:41:44.118Z,98881.72
2023-05-08T16:47:09.170Z,98873.63
2023-05-08T16:52:36.128Z,98880.50
2023-05-08T16:58:03.224Z,98874.28
2023-05-08T17:03:29.453Z,98874.81
2023-05-08T17:09:06.270Z,98872.53
2023-05-08T17:14:31.122Z,98870.84
2023-05-08T17:19:56.345Z,98874.00
2023-05-08T17:25:24.217Z,98879.31
2023-05-08T17:30:49.120Z,98873.19
2023-05-08T17:36:16.149Z,98869.13
2023-05-08T17:41:45.284Z,98870.56
2023-05-08T17:47:10.155Z,98874.56
2023-05-08T17:52:37.108Z,98882.78
2023-05-08T17:58:08.131Z,98871.66
2023-05-08T18:03:32.186Z,98877.63
2023-05-08T18:09:03.162Z,98878.94
2023-05-08T18:14:31.161Z,98882.66
2023-05-08T18:19:55.304Z,98885.94
2023-05-08T18:25:20.169Z,98886.16
2023-05-08T18:30:47.150Z,98885.81
2023-05-08T18:36:13.152Z,98890.94
2023-05-08T18:41:37.277Z,98893.91
2023-05-08T18:47:05.196Z,98893.53
2023-05-08T18:52:29.191Z,98908.34
2023-05-08T18:57:54.192Z,98910.34
2023-05-08T19:03:22.215Z,98906.16
2023-05-08T19:08:54.204Z,98917.69
2023-05-08T19:14:19.201Z,98921.75
2023-05-08T19:19:46.227Z,98918.56
2023-05-08T19:25:11.232Z,98918.00
2023-05-08T19:30:35.215Z,98920.28
2023-05-08T19:36:03.225Z,98912.38
2023-05-08T19:41:27.387Z,98919.72
2023-05-08T19:46:52.206Z,98915.16
2023-05-08T19:52:19.229Z,98921.25
2023-05-08T19:57:44.209Z,98928.72
2023-05-08T20:03:08.313Z,98932.03
2023-05-08T20:08:42.235Z,98928.59
2023-05-08T20:14:07.239Z,98928.00
2023-05-08T20:19:31.320Z,98925.97
2023-05-08T20:25:02.746Z,98931.47
2023-05-08T20:30:29.283Z,98936.34
2023-05-08T20:35:57.259Z,98933.41
2023-05-08T20:41:25.253Z,98936.53
2023-05-08T20:46:56.250Z,98928.19
2023-05-08T20:52:21.291Z,98938.47
2023-05-08T20:57:49.281Z,98931.84
2023-05-08T21:03:14.265Z,98922.31
2023-05-08T21:08:46.294Z,98922.31
2023-05-08T21:14:14.264Z,98926.75
2023-05-08T21:19:39.312Z,98924.13
2023-05-08T21:25:04.260Z,98912.44
2023-05-08T21:30:31.294Z,98911.03
2023-05-08T21:35:56.296Z,98913.66
2023-05-08T21:41:24.321Z,98900.91
2023-05-08T21:46:52.443Z,98897.53
2023-05-08T21:52:16.276Z,98902.66
2023-05-08T21:57:41.276Z,98901.44
2023-05-08T22:03:08.402Z,98895.94
2023-05-08T22:08:39.322Z,98889.69
2023-05-08T22:14:04.390Z,98895.69
2023-05-08T22:19:31.317Z,98888.91
2023-05-08T22:24:56.295Z,98890.59
2023-05-08T22:30:23.315Z,98877.31
2023-05-08T22:35:51.302Z,98882.72
2023-05-08T22:41:15.329Z,98891.97
2023-05-08T22:46:42.472Z,98888.72
2023-05-08T22:52:09.305Z,98881.72
2023-05-08T22:57:34.337Z,98881.47
2023-05-08T23:02:58.316Z,98877.41
2023-05-08T23:08:33.313Z,98878.69
2023-05-08T23:13:58.350Z,98869.91
2023-05-08T23:19:22.363Z,98863.13
2023-05-08T23:24:50.357Z,98859.03
2023-05-08T23:30:14.308Z,98852.22
2023-05-08T23:35:39.311Z,98856.34
2023-05-08T23:41:06.496Z,98856.09
2023-05-08T23:46:31.477Z,98845.06
2023-05-08T23:51:55.348Z,98832.94
2023-05-08T23:57:23.369Z,98839.34
